sensor_id;sensor_type;location;lat;lon;timestamp;P1;durP1;ratioP1;P2;durP2;ratioP2
12320;SDS011;6225;52.720;8.276;2022-07-31T00:00:58;9.95;;;2.05;;
12320;SDS011;6225;52.720;8.276;2022-07-31T00:03:43;3.78;;;1.92;;
12320;SDS011;6225;52.720;8.276;2022-07-31T00:06:27;2.55;;;1.90;;
12320;SDS011;6225;52.720;8.276;2022-07-31T00:09:11;2.58;;;1.95;;
12320;SDS011;6225;52.720;8.276;2022-07-31T00:11:55;2.88;;;1.75;;
12320;SDS011;6225;52.720;8.276;2022-07-31T00:14:39;5.60;;;1.88;;
12320;SDS011;6225;52.720;8.276;2022-07-31T00:17:23;2.92;;;1.80;;
12320;SDS011;6225;52.720;8.276;2022-07-31T00:20:07;4.20;;;1.92;;
12320;SDS011;6225;52.720;8.276;2022-07-31T00:22:56;4.35;;;1.90;;
12320;SDS011;6225;52.720;8.276;2022-07-31T00:25:40;2.42;;;1.88;;
12320;SDS011;6225;52.720;8.276;2022-07-31T00:28:24;2.40;;;2.13;;
12320;SDS011;6225;52.720;8.276;2022-07-31T00:31:08;3.10;;;2.00;;
12320;SDS011;6225;52.720;8.276;2022-07-31T00:33:52;3.75;;;1.88;;
12320;SDS011;6225;52.720;8.276;2022-07-31T00:36:36;2.75;;;1.90;;
12320;SDS011;6225;52.720;8.276;2022-07-31T00:39:20;2.55;;;1.88;;
12320;SDS011;6225;52.720;8.276;2022-07-31T00:42:19;3.08;;;1.67;;
12320;SDS011;6225;52.720;8.276;2022-07-31T00:45:05;2.30;;;1.70;;
12320;SDS011;6225;52.720;8.276;2022-07-31T00:47:50;3.75;;;1.73;;
12320;SDS011;6225;52.720;8.276;2022-07-31T00:50:34;3.47;;;2.05;;
12320;SDS011;6225;52.720;8.276;2022-07-31T00:53:20;5.85;;;2.10;;
12320;SDS011;6225;52.720;8.276;2022-07-31T00:56:04;6.65;;;2.25;;
12320;SDS011;6225;52.720;8.276;2022-07-31T00:58:48;6.03;;;2.33;;
12320;SDS011;6225;52.720;8.276;2022-07-31T01:01:32;8.83;;;1.90;;
12320;SDS011;6225;52.720;8.276;2022-07-31T01:04:16;3.05;;;2.17;;
12320;SDS011;6225;52.720;8.276;2022-07-31T01:07:01;6.50;;;2.28;;
12320;SDS011;6225;52.720;8.276;2022-07-31T01:09:46;3.53;;;2.45;;
12320;SDS011;6225;52.720;8.276;2022-07-31T01:12:35;6.45;;;2.65;;
12320;SDS011;6225;52.720;8.276;2022-07-31T01:15:27;4.00;;;2.10;;
12320;SDS011;6225;52.720;8.276;2022-07-31T01:18:12;4.47;;;1.95;;
12320;SDS011;6225;52.720;8.276;2022-07-31T01:20:59;2.40;;;2.20;;
12320;SDS011;6225;52.720;8.276;2022-07-31T01:26:55;5.63;;;2.43;;
12320;SDS011;6225;52.720;8.276;2022-07-31T01:29:46;5.78;;;2.22;;
12320;SDS011;6225;52.720;8.276;2022-07-31T01:32:36;3.80;;;2.15;;
12320;SDS011;6225;52.720;8.276;2022-07-31T01:35:27;4.03;;;2.17;;
12320;SDS011;6225;52.720;8.276;2022-07-31T01:38:16;1.92;;;1.70;;
12320;SDS011;6225;52.720;8.276;2022-07-31T01:41:10;2.88;;;2.17;;
12320;SDS011;6225;52.720;8.276;2022-07-31T01:43:56;3.90;;;1.90;;
12320;SDS011;6225;52.720;8.276;2022-07-31T01:46:41;3.28;;;1.90;;
12320;SDS011;6225;52.720;8.276;2022-07-31T01:49:27;4.15;;;2.13;;
12320;SDS011;6225;52.720;8.276;2022-07-31T01:52:14;5.72;;;2.00;;
12320;SDS011;6225;52.720;8.276;2022-07-31T01:54:59;4.67;;;2.10;;
12320;SDS011;6225;52.720;8.276;2022-07-31T01:57:44;2.20;;;2.00;;
12320;SDS011;6225;52.720;8.276;2022-07-31T02:00:30;2.20;;;1.73;;
12320;SDS011;6225;52.720;8.276;2022-07-31T02:03:15;5.13;;;1.88;;
12320;SDS011;6225;52.720;8.276;2022-07-31T02:06:00;3.85;;;1.90;;
12320;SDS011;6225;52.720;8.276;2022-07-31T02:08:47;7.15;;;2.10;;
12320;SDS011;6225;52.720;8.276;2022-07-31T02:11:34;3.10;;;1.92;;
12320;SDS011;6225;52.720;8.276;2022-07-31T02:14:18;4.13;;;2.00;;
12320;SDS011;6225;52.720;8.276;2022-07-31T02:17:03;2.97;;;2.10;;
12320;SDS011;6225;52.720;8.276;2022-07-31T02:19:48;3.47;;;2.08;;
12320;SDS011;6225;52.720;8.276;2022-07-31T02:22:35;4.75;;;2.33;;
12320;SDS011;6225;52.720;8.276;2022-07-31T02:25:20;4.60;;;2.10;;
12320;SDS011;6225;52.720;8.276;2022-07-31T02:28:06;7.38;;;2.33;;
12320;SDS011;6225;52.720;8.276;2022-07-31T02:30:52;5.07;;;2.50;;
12320;SDS011;6225;52.720;8.276;2022-07-31T02:33:38;2.33;;;1.80;;
12320;SDS011;6225;52.720;8.276;2022-07-31T02:36:27;3.80;;;1.80;;
12320;SDS011;6225;52.720;8.276;2022-07-31T02:39:13;4.83;;;2.20;;
12320;SDS011;6225;52.720;8.276;2022-07-31T02:41:59;4.82;;;2.40;;
12320;SDS011;6225;52.720;8.276;2022-07-31T02:44:43;3.50;;;2.10;;
12320;SDS011;6225;52.720;8.276;2022-07-31T02:47:29;5.00;;;2.90;;
12320;SDS011;6225;52.720;8.276;2022-07-31T02:50:15;4.90;;;2.47;;
12320;SDS011;6225;52.720;8.276;2022-07-31T02:53:01;3.80;;;2.30;;
12320;SDS011;6225;52.720;8.276;2022-07-31T02:55:46;2.60;;;2.40;;
12320;SDS011;6225;52.720;8.276;2022-07-31T02:58:31;3.60;;;2.50;;
12320;SDS011;6225;52.720;8.276;2022-07-31T03:01:15;4.67;;;2.40;;
12320;SDS011;6225;52.720;8.276;2022-07-31T03:04:00;3.13;;;2.37;;
12320;SDS011;6225;52.720;8.276;2022-07-31T03:06:44;5.10;;;2.30;;
12320;SDS011;6225;52.720;8.276;2022-07-31T03:09:31;12.90;;;2.43;;
12320;SDS011;6225;52.720;8.276;2022-07-31T03:12:15;3.07;;;2.50;;
12320;SDS011;6225;52.720;8.276;2022-07-31T03:14:59;3.83;;;2.40;;
12320;SDS011;6225;52.720;8.276;2022-07-31T03:17:44;3.27;;;2.47;;
12320;SDS011;6225;52.720;8.276;2022-07-31T03:20:30;3.22;;;2.42;;
12320;SDS011;6225;52.720;8.276;2022-07-31T03:23:15;3.33;;;2.70;;
12320;SDS011;6225;52.720;8.276;2022-07-31T03:26:01;5.43;;;3.07;;
12320;SDS011;6225;52.720;8.276;2022-07-31T03:28:46;2.65;;;2.40;;
12320;SDS011;6225;52.720;8.276;2022-07-31T03:31:31;3.37;;;2.50;;
12320;SDS011;6225;52.720;8.276;2022-07-31T03:34:15;4.17;;;2.50;;
12320;SDS011;6225;52.720;8.276;2022-07-31T03:36:59;5.13;;;2.23;;
12320;SDS011;6225;52.720;8.276;2022-07-31T03:39:43;4.60;;;2.17;;
12320;SDS011;6225;52.720;8.276;2022-07-31T03:42:27;4.60;;;2.10;;
12320;SDS011;6225;52.720;8.276;2022-07-31T03:45:12;4.28;;;2.30;;
12320;SDS011;6225;52.720;8.276;2022-07-31T03:47:57;5.10;;;2.50;;
12320;SDS011;6225;52.720;8.276;2022-07-31T03:50:41;6.38;;;2.38;;
12320;SDS011;6225;52.720;8.276;2022-07-31T03:53:27;3.40;;;2.10;;
12320;SDS011;6225;52.720;8.276;2022-07-31T03:56:13;3.70;;;2.40;;
12320;SDS011;6225;52.720;8.276;2022-07-31T03:58:58;5.20;;;2.70;;
12320;SDS011;6225;52.720;8.276;2022-07-31T04:01:43;6.35;;;2.80;;
12320;SDS011;6225;52.720;8.276;2022-07-31T04:04:27;3.28;;;2.88;;
12320;SDS011;6225;52.720;8.276;2022-07-31T04:07:11;4.37;;;2.50;;
12320;SDS011;6225;52.720;8.276;2022-07-31T04:09:55;5.03;;;3.00;;
12320;SDS011;6225;52.720;8.276;2022-07-31T04:12:39;4.50;;;3.13;;
12320;SDS011;6225;52.720;8.276;2022-07-31T04:15:24;3.83;;;2.93;;
12320;SDS011;6225;52.720;8.276;2022-07-31T04:18:08;5.38;;;2.78;;
12320;SDS011;6225;52.720;8.276;2022-07-31T04:20:52;4.25;;;3.47;;
12320;SDS011;6225;52.720;8.276;2022-07-31T04:23:36;5.78;;;3.15;;
12320;SDS011;6225;52.720;8.276;2022-07-31T04:26:20;3.83;;;2.83;;
12320;SDS011;6225;52.720;8.276;2022-07-31T04:29:04;7.53;;;3.10;;
12320;SDS011;6225;52.720;8.276;2022-07-31T04:31:48;4.47;;;3.20;;
12320;SDS011;6225;52.720;8.276;2022-07-31T04:34:32;5.07;;;3.10;;
12320;SDS011;6225;52.720;8.276;2022-07-31T04:37:16;4.83;;;3.60;;
12320;SDS011;6225;52.720;8.276;2022-07-31T04:40:01;3.40;;;2.97;;
12320;SDS011;6225;52.720;8.276;2022-07-31T04:42:46;5.23;;;3.47;;
12320;SDS011;6225;52.720;8.276;2022-07-31T04:45:30;4.03;;;3.58;;
12320;SDS011;6225;52.720;8.276;2022-07-31T04:48:14;3.97;;;3.40;;
12320;SDS011;6225;52.720;8.276;2022-07-31T04:50:58;8.00;;;4.40;;
12320;SDS011;6225;52.720;8.276;2022-07-31T04:53:42;9.03;;;3.80;;
12320;SDS011;6225;52.720;8.276;2022-07-31T04:56:27;4.50;;;4.03;;
12320;SDS011;6225;52.720;8.276;2022-07-31T04:59:20;5.05;;;4.00;;
12320;SDS011;6225;52.720;8.276;2022-07-31T05:02:05;4.65;;;4.05;;
12320;SDS011;6225;52.720;8.276;2022-07-31T05:04:49;4.65;;;4.15;;
12320;SDS011;6225;52.720;8.276;2022-07-31T05:07:33;4.57;;;4.10;;
12320;SDS011;6225;52.720;8.276;2022-07-31T05:10:18;4.38;;;3.97;;
12320;SDS011;6225;52.720;8.276;2022-07-31T05:13:21;12.43;;;4.23;;
12320;SDS011;6225;52.720;8.276;2022-07-31T05:16:09;4.87;;;4.37;;
12320;SDS011;6225;52.720;8.276;2022-07-31T05:18:54;4.30;;;3.90;;
12320;SDS011;6225;52.720;8.276;2022-07-31T05:21:39;7.23;;;4.07;;
12320;SDS011;6225;52.720;8.276;2022-07-31T05:24:23;6.70;;;4.07;;
12320;SDS011;6225;52.720;8.276;2022-07-31T05:27:08;5.47;;;3.95;;
12320;SDS011;6225;52.720;8.276;2022-07-31T05:29:52;9.20;;;4.40;;
12320;SDS011;6225;52.720;8.276;2022-07-31T05:32:37;6.32;;;3.90;;
12320;SDS011;6225;52.720;8.276;2022-07-31T05:35:21;8.73;;;4.23;;
12320;SDS011;6225;52.720;8.276;2022-07-31T05:38:05;7.87;;;4.80;;
12320;SDS011;6225;52.720;8.276;2022-07-31T05:40:49;8.15;;;4.43;;
12320;SDS011;6225;52.720;8.276;2022-07-31T05:43:33;5.20;;;4.63;;
12320;SDS011;6225;52.720;8.276;2022-07-31T05:46:18;6.20;;;4.68;;
12320;SDS011;6225;52.720;8.276;2022-07-31T05:49:02;6.38;;;4.78;;
12320;SDS011;6225;52.720;8.276;2022-07-31T05:51:46;6.22;;;4.63;;
12320;SDS011;6225;52.720;8.276;2022-07-31T05:54:36;4.80;;;4.40;;
12320;SDS011;6225;52.720;8.276;2022-07-31T05:57:20;9.15;;;4.85;;
12320;SDS011;6225;52.720;8.276;2022-07-31T06:00:04;8.15;;;4.82;;
12320;SDS011;6225;52.720;8.276;2022-07-31T06:02:49;5.72;;;4.88;;
12320;SDS011;6225;52.720;8.276;2022-07-31T06:05:33;4.75;;;4.22;;
12320;SDS011;6225;52.720;8.276;2022-07-31T06:08:19;5.18;;;4.15;;
12320;SDS011;6225;52.720;8.276;2022-07-31T06:11:03;7.60;;;4.55;;
12320;SDS011;6225;52.720;8.276;2022-07-31T06:13:47;5.47;;;4.38;;
12320;SDS011;6225;52.720;8.276;2022-07-31T06:16:31;8.20;;;4.60;;
12320;SDS011;6225;52.720;8.276;2022-07-31T06:19:15;5.82;;;4.28;;
12320;SDS011;6225;52.720;8.276;2022-07-31T06:21:59;4.75;;;4.32;;
12320;SDS011;6225;52.720;8.276;2022-07-31T06:24:43;8.95;;;5.00;;
12320;SDS011;6225;52.720;8.276;2022-07-31T06:27:27;6.88;;;4.00;;
12320;SDS011;6225;52.720;8.276;2022-07-31T06:30:11;8.43;;;4.32;;
12320;SDS011;6225;52.720;8.276;2022-07-31T06:32:56;5.72;;;3.63;;
12320;SDS011;6225;52.720;8.276;2022-07-31T06:35:40;5.80;;;3.92;;
12320;SDS011;6225;52.720;8.276;2022-07-31T06:38:24;9.15;;;4.97;;
12320;SDS011;6225;52.720;8.276;2022-07-31T06:41:08;6.20;;;4.53;;
12320;SDS011;6225;52.720;8.276;2022-07-31T06:43:52;7.72;;;4.20;;
12320;SDS011;6225;52.720;8.276;2022-07-31T06:46:36;7.75;;;4.55;;
12320;SDS011;6225;52.720;8.276;2022-07-31T06:49:20;8.10;;;4.45;;
12320;SDS011;6225;52.720;8.276;2022-07-31T06:52:05;9.50;;;4.63;;
12320;SDS011;6225;52.720;8.276;2022-07-31T06:54:49;8.02;;;4.32;;
12320;SDS011;6225;52.720;8.276;2022-07-31T06:57:33;7.47;;;3.83;;
12320;SDS011;6225;52.720;8.276;2022-07-31T07:00:17;9.27;;;4.10;;
12320;SDS011;6225;52.720;8.276;2022-07-31T07:03:02;5.85;;;4.28;;
12320;SDS011;6225;52.720;8.276;2022-07-31T07:05:47;6.68;;;3.97;;
12320;SDS011;6225;52.720;8.276;2022-07-31T07:08:31;9.07;;;5.82;;
12320;SDS011;6225;52.720;8.276;2022-07-31T07:11:15;9.02;;;4.70;;
12320;SDS011;6225;52.720;8.276;2022-07-31T07:14:00;7.03;;;4.38;;
12320;SDS011;6225;52.720;8.276;2022-07-31T07:16:44;6.18;;;3.92;;
12320;SDS011;6225;52.720;8.276;2022-07-31T07:19:28;8.68;;;4.95;;
12320;SDS011;6225;52.720;8.276;2022-07-31T07:22:13;8.02;;;5.88;;
12320;SDS011;6225;52.720;8.276;2022-07-31T07:24:57;10.45;;;4.70;;
12320;SDS011;6225;52.720;8.276;2022-07-31T07:27:42;8.50;;;4.93;;
12320;SDS011;6225;52.720;8.276;2022-07-31T07:30:26;6.80;;;4.05;;
12320;SDS011;6225;52.720;8.276;2022-07-31T07:33:11;10.40;;;4.07;;
12320;SDS011;6225;52.720;8.276;2022-07-31T07:35:55;5.15;;;3.72;;
12320;SDS011;6225;52.720;8.276;2022-07-31T07:38:39;5.70;;;4.20;;
12320;SDS011;6225;52.720;8.276;2022-07-31T07:41:24;5.28;;;4.20;;
12320;SDS011;6225;52.720;8.276;2022-07-31T07:44:09;6.18;;;3.63;;
12320;SDS011;6225;52.720;8.276;2022-07-31T07:46:53;8.45;;;3.10;;
12320;SDS011;6225;52.720;8.276;2022-07-31T07:49:37;4.22;;;3.83;;
12320;SDS011;6225;52.720;8.276;2022-07-31T07:52:21;6.80;;;4.43;;
12320;SDS011;6225;52.720;8.276;2022-07-31T07:55:05;8.95;;;4.20;;
12320;SDS011;6225;52.720;8.276;2022-07-31T07:57:50;6.82;;;3.90;;
12320;SDS011;6225;52.720;8.276;2022-07-31T08:00:34;8.57;;;3.88;;
12320;SDS011;6225;52.720;8.276;2022-07-31T08:03:18;7.20;;;4.55;;
12320;SDS011;6225;52.720;8.276;2022-07-31T08:06:02;5.57;;;4.20;;
12320;SDS011;6225;52.720;8.276;2022-07-31T08:08:46;7.60;;;4.00;;
12320;SDS011;6225;52.720;8.276;2022-07-31T08:11:31;4.95;;;3.63;;
12320;SDS011;6225;52.720;8.276;2022-07-31T08:14:15;8.63;;;3.38;;
12320;SDS011;6225;52.720;8.276;2022-07-31T08:16:59;5.78;;;2.88;;
12320;SDS011;6225;52.720;8.276;2022-07-31T08:19:43;4.47;;;3.00;;
12320;SDS011;6225;52.720;8.276;2022-07-31T08:22:28;5.78;;;2.90;;
12320;SDS011;6225;52.720;8.276;2022-07-31T08:25:12;5.00;;;2.53;;
12320;SDS011;6225;52.720;8.276;2022-07-31T08:27:56;6.57;;;2.60;;
12320;SDS011;6225;52.720;8.276;2022-07-31T08:30:40;3.28;;;2.25;;
12320;SDS011;6225;52.720;8.276;2022-07-31T08:33:24;5.35;;;2.58;;
12320;SDS011;6225;52.720;8.276;2022-07-31T08:36:08;4.53;;;2.28;;
12320;SDS011;6225;52.720;8.276;2022-07-31T08:38:52;4.97;;;2.58;;
12320;SDS011;6225;52.720;8.276;2022-07-31T08:41:36;6.07;;;2.55;;
12320;SDS011;6225;52.720;8.276;2022-07-31T08:44:23;2.53;;;2.05;;
12320;SDS011;6225;52.720;8.276;2022-07-31T08:47:07;5.72;;;2.22;;
12320;SDS011;6225;52.720;8.276;2022-07-31T08:49:53;5.00;;;2.28;;
12320;SDS011;6225;52.720;8.276;2022-07-31T08:52:39;5.57;;;3.00;;
12320;SDS011;6225;52.720;8.276;2022-07-31T08:55:27;3.60;;;1.80;;
12320;SDS011;6225;52.720;8.276;2022-07-31T08:58:14;3.83;;;2.10;;
12320;SDS011;6225;52.720;8.276;2022-07-31T09:00:58;4.70;;;2.72;;
12320;SDS011;6225;52.720;8.276;2022-07-31T09:03:42;5.22;;;2.78;;
12320;SDS011;6225;52.720;8.276;2022-07-31T09:06:27;5.32;;;2.50;;
12320;SDS011;6225;52.720;8.276;2022-07-31T09:09:11;4.88;;;2.42;;
12320;SDS011;6225;52.720;8.276;2022-07-31T09:11:57;7.38;;;2.58;;
12320;SDS011;6225;52.720;8.276;2022-07-31T09:14:46;4.90;;;2.63;;
12320;SDS011;6225;52.720;8.276;2022-07-31T09:17:31;7.35;;;3.00;;
12320;SDS011;6225;52.720;8.276;2022-07-31T09:20:18;4.60;;;2.63;;
12320;SDS011;6225;52.720;8.276;2022-07-31T09:23:05;3.40;;;2.20;;
12320;SDS011;6225;52.720;8.276;2022-07-31T09:25:51;4.13;;;2.10;;
12320;SDS011;6225;52.720;8.276;2022-07-31T09:28:44;2.90;;;1.80;;
12320;SDS011;6225;52.720;8.276;2022-07-31T09:31:31;2.55;;;1.80;;
12320;SDS011;6225;52.720;8.276;2022-07-31T09:34:24;4.30;;;1.92;;
12320;SDS011;6225;52.720;8.276;2022-07-31T09:37:14;6.93;;;2.25;;
12320;SDS011;6225;52.720;8.276;2022-07-31T09:39:59;3.03;;;1.77;;
12320;SDS011;6225;52.720;8.276;2022-07-31T09:42:44;2.80;;;1.70;;
12320;SDS011;6225;52.720;8.276;2022-07-31T09:45:31;4.15;;;2.35;;
12320;SDS011;6225;52.720;8.276;2022-07-31T09:48:15;3.17;;;2.30;;
12320;SDS011;6225;52.720;8.276;2022-07-31T09:51:05;3.40;;;2.13;;
12320;SDS011;6225;52.720;8.276;2022-07-31T09:53:51;4.30;;;2.00;;
12320;SDS011;6225;52.720;8.276;2022-07-31T09:56:40;2.58;;;1.70;;
12320;SDS011;6225;52.720;8.276;2022-07-31T09:59:26;1.30;;;1.20;;
12320;SDS011;6225;52.720;8.276;2022-07-31T10:02:12;3.55;;;1.50;;
12320;SDS011;6225;52.720;8.276;2022-07-31T10:04:58;3.85;;;1.92;;
12320;SDS011;6225;52.720;8.276;2022-07-31T10:07:42;3.58;;;2.15;;
12320;SDS011;6225;52.720;8.276;2022-07-31T10:10:28;2.15;;;1.77;;
12320;SDS011;6225;52.720;8.276;2022-07-31T10:13:14;3.75;;;2.08;;
12320;SDS011;6225;52.720;8.276;2022-07-31T10:16:01;3.55;;;2.40;;
12320;SDS011;6225;52.720;8.276;2022-07-31T10:18:48;2.30;;;2.10;;
12320;SDS011;6225;52.720;8.276;2022-07-31T10:21:41;5.88;;;2.88;;
12320;SDS011;6225;52.720;8.276;2022-07-31T10:24:34;4.68;;;2.55;;
12320;SDS011;6225;52.720;8.276;2022-07-31T10:27:26;6.38;;;3.20;;
12320;SDS011;6225;52.720;8.276;2022-07-31T10:30:11;7.55;;;3.30;;
12320;SDS011;6225;52.720;8.276;2022-07-31T10:32:56;6.22;;;2.88;;
12320;SDS011;6225;52.720;8.276;2022-07-31T10:35:43;4.28;;;3.08;;
12320;SDS011;6225;52.720;8.276;2022-07-31T10:41:53;9.52;;;3.33;;
12320;SDS011;6225;52.720;8.276;2022-07-31T10:44:43;5.38;;;3.17;;
12320;SDS011;6225;52.720;8.276;2022-07-31T10:47:33;4.93;;;3.38;;
12320;SDS011;6225;52.720;8.276;2022-07-31T10:50:21;6.85;;;4.78;;
12320;SDS011;6225;52.720;8.276;2022-07-31T10:53:07;10.07;;;5.15;;
12320;SDS011;6225;52.720;8.276;2022-07-31T10:56:03;14.07;;;6.50;;
12320;SDS011;6225;52.720;8.276;2022-07-31T10:58:49;6.93;;;5.53;;
12320;SDS011;6225;52.720;8.276;2022-07-31T11:01:47;7.72;;;6.63;;
12320;SDS011;6225;52.720;8.276;2022-07-31T11:04:33;10.45;;;5.88;;
12320;SDS011;6225;52.720;8.276;2022-07-31T11:07:18;7.35;;;5.60;;
12320;SDS011;6225;52.720;8.276;2022-07-31T11:10:11;10.25;;;5.75;;
12320;SDS011;6225;52.720;8.276;2022-07-31T11:13:05;7.95;;;6.05;;
12320;SDS011;6225;52.720;8.276;2022-07-31T11:15:50;10.43;;;6.00;;
12320;SDS011;6225;52.720;8.276;2022-07-31T11:18:59;8.10;;;5.72;;
12320;SDS011;6225;52.720;8.276;2022-07-31T11:21:45;7.10;;;5.40;;
12320;SDS011;6225;52.720;8.276;2022-07-31T11:24:29;12.82;;;4.78;;
12320;SDS011;6225;52.720;8.276;2022-07-31T11:27:13;8.55;;;4.65;;
12320;SDS011;6225;52.720;8.276;2022-07-31T11:30:06;8.48;;;4.60;;
12320;SDS011;6225;52.720;8.276;2022-07-31T11:32:51;6.70;;;4.18;;
12320;SDS011;6225;52.720;8.276;2022-07-31T11:35:36;6.47;;;4.57;;
12320;SDS011;6225;52.720;8.276;2022-07-31T11:38:25;7.18;;;3.50;;
12320;SDS011;6225;52.720;8.276;2022-07-31T11:41:11;8.05;;;3.95;;
12320;SDS011;6225;52.720;8.276;2022-07-31T11:43:55;6.63;;;4.10;;
12320;SDS011;6225;52.720;8.276;2022-07-31T11:46:40;9.27;;;4.30;;
12320;SDS011;6225;52.720;8.276;2022-07-31T11:49:24;9.25;;;4.32;;
12320;SDS011;6225;52.720;8.276;2022-07-31T11:52:10;7.82;;;4.63;;
12320;SDS011;6225;52.720;8.276;2022-07-31T11:57:49;7.95;;;4.43;;
12320;SDS011;6225;52.720;8.276;2022-07-31T12:00:33;4.35;;;3.60;;
12320;SDS011;6225;52.720;8.276;2022-07-31T12:03:21;5.13;;;4.03;;
12320;SDS011;6225;52.720;8.276;2022-07-31T12:06:09;7.82;;;4.38;;
12320;SDS011;6225;52.720;8.276;2022-07-31T12:08:54;6.75;;;3.97;;
12320;SDS011;6225;52.720;8.276;2022-07-31T12:11:39;4.40;;;3.75;;
12320;SDS011;6225;52.720;8.276;2022-07-31T12:14:27;6.53;;;4.32;;
12320;SDS011;6225;52.720;8.276;2022-07-31T12:17:22;8.82;;;4.65;;
12320;SDS011;6225;52.720;8.276;2022-07-31T12:20:07;8.63;;;4.05;;
12320;SDS011;6225;52.720;8.276;2022-07-31T12:22:57;8.00;;;4.30;;
12320;SDS011;6225;52.720;8.276;2022-07-31T12:25:42;11.35;;;4.72;;
12320;SDS011;6225;52.720;8.276;2022-07-31T12:28:29;8.70;;;4.45;;
12320;SDS011;6225;52.720;8.276;2022-07-31T12:31:13;6.40;;;4.25;;
12320;SDS011;6225;52.720;8.276;2022-07-31T12:33:58;6.20;;;4.40;;
12320;SDS011;6225;52.720;8.276;2022-07-31T12:36:42;8.02;;;4.57;;
12320;SDS011;6225;52.720;8.276;2022-07-31T12:39:27;9.00;;;4.30;;
12320;SDS011;6225;52.720;8.276;2022-07-31T12:42:22;8.02;;;4.53;;
12320;SDS011;6225;52.720;8.276;2022-07-31T12:45:11;9.25;;;5.85;;
12320;SDS011;6225;52.720;8.276;2022-07-31T12:47:55;7.25;;;4.57;;
12320;SDS011;6225;52.720;8.276;2022-07-31T12:50:40;9.10;;;5.15;;
12320;SDS011;6225;52.720;8.276;2022-07-31T12:53:26;6.78;;;5.38;;
12320;SDS011;6225;52.720;8.276;2022-07-31T12:56:15;11.05;;;5.85;;
12320;SDS011;6225;52.720;8.276;2022-07-31T12:59:00;7.30;;;5.25;;
12320;SDS011;6225;52.720;8.276;2022-07-31T13:01:45;6.93;;;5.55;;
12320;SDS011;6225;52.720;8.276;2022-07-31T13:04:29;7.90;;;5.47;;
12320;SDS011;6225;52.720;8.276;2022-07-31T13:07:14;10.85;;;5.70;;
12320;SDS011;6225;52.720;8.276;2022-07-31T13:09:58;7.47;;;4.95;;
12320;SDS011;6225;52.720;8.276;2022-07-31T13:12:43;10.38;;;5.43;;
12320;SDS011;6225;52.720;8.276;2022-07-31T13:15:28;5.60;;;4.93;;
12320;SDS011;6225;52.720;8.276;2022-07-31T13:18:12;7.78;;;5.13;;
12320;SDS011;6225;52.720;8.276;2022-07-31T13:20:57;8.30;;;5.38;;
12320;SDS011;6225;52.720;8.276;2022-07-31T13:23:41;7.35;;;5.00;;
12320;SDS011;6225;52.720;8.276;2022-07-31T13:26:26;6.95;;;5.20;;
12320;SDS011;6225;52.720;8.276;2022-07-31T13:29:12;7.45;;;5.00;;
12320;SDS011;6225;52.720;8.276;2022-07-31T13:31:57;9.82;;;5.90;;
12320;SDS011;6225;52.720;8.276;2022-07-31T13:34:42;5.75;;;5.07;;
12320;SDS011;6225;52.720;8.276;2022-07-31T13:37:26;14.52;;;4.88;;
12320;SDS011;6225;52.720;8.276;2022-07-31T13:40:11;4.40;;;4.00;;
12320;SDS011;6225;52.720;8.276;2022-07-31T13:42:56;9.35;;;5.32;;
12320;SDS011;6225;52.720;8.276;2022-07-31T13:45:40;6.70;;;4.65;;
12320;SDS011;6225;52.720;8.276;2022-07-31T13:48:25;8.57;;;4.88;;
12320;SDS011;6225;52.720;8.276;2022-07-31T13:51:09;10.65;;;5.00;;
12320;SDS011;6225;52.720;8.276;2022-07-31T13:53:54;8.48;;;5.00;;
12320;SDS011;6225;52.720;8.276;2022-07-31T13:56:38;6.30;;;5.47;;
12320;SDS011;6225;52.720;8.276;2022-07-31T13:59:24;7.10;;;4.03;;
12320;SDS011;6225;52.720;8.276;2022-07-31T14:02:10;7.13;;;4.15;;
12320;SDS011;6225;52.720;8.276;2022-07-31T14:04:54;4.22;;;3.50;;
12320;SDS011;6225;52.720;8.276;2022-07-31T14:07:39;6.85;;;4.55;;
12320;SDS011;6225;52.720;8.276;2022-07-31T14:10:23;8.15;;;4.50;;
12320;SDS011;6225;52.720;8.276;2022-07-31T14:13:08;7.18;;;4.75;;
12320;SDS011;6225;52.720;8.276;2022-07-31T14:15:52;5.50;;;4.07;;
12320;SDS011;6225;52.720;8.276;2022-07-31T14:18:37;5.47;;;4.57;;
12320;SDS011;6225;52.720;8.276;2022-07-31T14:21:21;7.90;;;4.95;;
12320;SDS011;6225;52.720;8.276;2022-07-31T14:24:06;5.82;;;5.22;;
12320;SDS011;6225;52.720;8.276;2022-07-31T14:26:51;8.02;;;5.00;;
12320;SDS011;6225;52.720;8.276;2022-07-31T14:29:34;9.48;;;4.53;;
12320;SDS011;6225;52.720;8.276;2022-07-31T14:32:19;7.57;;;4.55;;
12320;SDS011;6225;52.720;8.276;2022-07-31T14:35:05;7.82;;;4.40;;
12320;SDS011;6225;52.720;8.276;2022-07-31T14:37:50;6.03;;;4.43;;
12320;SDS011;6225;52.720;8.276;2022-07-31T14:40:25;6.18;;;4.75;;
12320;SDS011;6225;52.720;8.276;2022-07-31T14:43:13;6.05;;;4.85;;
12320;SDS011;6225;52.720;8.276;2022-07-31T14:45:57;5.50;;;5.00;;
12320;SDS011;6225;52.720;8.276;2022-07-31T14:48:41;6.22;;;5.63;;
12320;SDS011;6225;52.720;8.276;2022-07-31T14:51:27;5.78;;;5.13;;
12320;SDS011;6225;52.720;8.276;2022-07-31T14:54:12;6.72;;;5.47;;
12320;SDS011;6225;52.720;8.276;2022-07-31T14:56:56;5.53;;;5.07;;
12320;SDS011;6225;52.720;8.276;2022-07-31T14:59:41;5.65;;;5.13;;
12320;SDS011;6225;52.720;8.276;2022-07-31T15:02:27;5.65;;;4.70;;
12320;SDS011;6225;52.720;8.276;2022-07-31T15:05:13;8.40;;;6.00;;
12320;SDS011;6225;52.720;8.276;2022-07-31T15:08:05;9.18;;;5.55;;
12320;SDS011;6225;52.720;8.276;2022-07-31T15:10:50;6.40;;;5.80;;
12320;SDS011;6225;52.720;8.276;2022-07-31T15:13:35;5.85;;;5.20;;
12320;SDS011;6225;52.720;8.276;2022-07-31T15:16:20;7.57;;;6.13;;
12320;SDS011;6225;52.720;8.276;2022-07-31T15:19:05;9.77;;;6.30;;
12320;SDS011;6225;52.720;8.276;2022-07-31T15:21:49;6.63;;;5.78;;
12320;SDS011;6225;52.720;8.276;2022-07-31T15:24:34;11.82;;;6.88;;
12320;SDS011;6225;52.720;8.276;2022-07-31T15:27:19;9.32;;;6.88;;
12320;SDS011;6225;52.720;8.276;2022-07-31T15:30:04;6.68;;;6.07;;
12320;SDS011;6225;52.720;8.276;2022-07-31T15:32:50;7.28;;;6.55;;
12320;SDS011;6225;52.720;8.276;2022-07-31T15:35:35;8.10;;;6.50;;
12320;SDS011;6225;52.720;8.276;2022-07-31T15:38:20;7.38;;;6.70;;
12320;SDS011;6225;52.720;8.276;2022-07-31T15:41:04;7.32;;;6.32;;
12320;SDS011;6225;52.720;8.276;2022-07-31T15:43:53;8.70;;;7.30;;
12320;SDS011;6225;52.720;8.276;2022-07-31T15:46:38;7.57;;;6.93;;
12320;SDS011;6225;52.720;8.276;2022-07-31T15:49:23;8.65;;;7.75;;
12320;SDS011;6225;52.720;8.276;2022-07-31T15:52:07;7.95;;;7.13;;
12320;SDS011;6225;52.720;8.276;2022-07-31T15:54:51;8.45;;;7.45;;
12320;SDS011;6225;52.720;8.276;2022-07-31T15:57:39;8.13;;;7.18;;
12320;SDS011;6225;52.720;8.276;2022-07-31T16:00:24;8.10;;;7.32;;
12320;SDS011;6225;52.720;8.276;2022-07-31T16:03:09;9.38;;;6.72;;
12320;SDS011;6225;52.720;8.276;2022-07-31T16:05:54;8.70;;;7.50;;
12320;SDS011;6225;52.720;8.276;2022-07-31T16:08:39;8.15;;;7.35;;
12320;SDS011;6225;52.720;8.276;2022-07-31T16:11:24;9.10;;;8.20;;
12320;SDS011;6225;52.720;8.276;2022-07-31T16:14:08;9.27;;;8.10;;
12320;SDS011;6225;52.720;8.276;2022-07-31T16:16:53;8.68;;;7.85;;
12320;SDS011;6225;52.720;8.276;2022-07-31T16:19:37;8.48;;;7.72;;
12320;SDS011;6225;52.720;8.276;2022-07-31T16:22:21;9.77;;;8.60;;
12320;SDS011;6225;52.720;8.276;2022-07-31T16:25:08;9.25;;;8.45;;
12320;SDS011;6225;52.720;8.276;2022-07-31T16:27:53;8.73;;;7.88;;
12320;SDS011;6225;52.720;8.276;2022-07-31T16:30:38;9.88;;;8.82;;
12320;SDS011;6225;52.720;8.276;2022-07-31T16:33:22;9.30;;;8.23;;
12320;SDS011;6225;52.720;8.276;2022-07-31T16:36:06;9.85;;;8.68;;
12320;SDS011;6225;52.720;8.276;2022-07-31T16:38:50;9.90;;;8.90;;
12320;SDS011;6225;52.720;8.276;2022-07-31T16:41:35;9.38;;;8.52;;
12320;SDS011;6225;52.720;8.276;2022-07-31T16:44:21;10.40;;;9.40;;
12320;SDS011;6225;52.720;8.276;2022-07-31T16:47:05;9.95;;;8.95;;
12320;SDS011;6225;52.720;8.276;2022-07-31T16:49:51;10.60;;;9.32;;
12320;SDS011;6225;52.720;8.276;2022-07-31T16:52:35;10.43;;;9.43;;
12320;SDS011;6225;52.720;8.276;2022-07-31T16:55:20;10.75;;;9.48;;
12320;SDS011;6225;52.720;8.276;2022-07-31T16:58:05;10.20;;;9.30;;
12320;SDS011;6225;52.720;8.276;2022-07-31T17:00:53;10.68;;;9.60;;